sensor_id;sensor_type;location;lat;lon;timestamp;P1;durP1;ratioP1;P2;durP2;ratioP2
73699;SDS011;62005;50.082;8.988;2023-04-24T00:00:48;1.27;;;0.40;;
73699;SDS011;62005;50.082;8.988;2023-04-24T00:06:16;1.73;;;0.20;;
73699;SDS011;62005;50.082;8.988;2023-04-24T00:11:53;1.33;;;0.20;;
73699;SDS011;62005;50.082;8.988;2023-04-24T00:17:37;1.67;;;0.22;;
73699;SDS011;62005;50.082;8.988;2023-04-24T00:26:36;0.98;;;0.30;;
73699;SDS011;62005;50.082;8.988;2023-04-24T00:32:33;1.15;;;0.13;;
73699;SDS011;62005;50.082;8.988;2023-04-24T00:34:59;3.00;;;0.37;;
73699;SDS011;62005;50.082;8.988;2023-04-24T00:37:24;0.73;;;0.20;;
73699;SDS011;62005;50.082;8.988;2023-04-24T00:45:57;0.90;;;0.30;;
73699;SDS011;62005;50.082;8.988;2023-04-24T00:51:51;0.93;;;0.20;;
73699;SDS011;62005;50.082;8.988;2023-04-24T00:54:20;1.33;;;0.20;;
73699;SDS011;62005;50.082;8.988;2023-04-24T01:01:08;1.75;;;0.13;;
73699;SDS011;62005;50.082;8.988;2023-04-24T01:03:37;0.95;;;0.30;;
73699;SDS011;62005;50.082;8.988;2023-04-24T01:16:16;1.95;;;0.22;;
73699;SDS011;62005;50.082;8.988;2023-04-24T01:18:42;0.77;;;0.20;;
73699;SDS011;62005;50.082;8.988;2023-04-24T01:21:08;1.00;;;0.10;;
73699;SDS011;62005;50.082;8.988;2023-04-24T01:23:56;1.73;;;0.10;;
73699;SDS011;62005;50.082;8.988;2023-04-24T01:27:19;0.40;;;0.10;;
73699;SDS011;62005;50.082;8.988;2023-04-24T01:29:45;1.98;;;0.13;;
73699;SDS011;62005;50.082;8.988;2023-04-24T01:41:32;0.82;;;0.20;;
73699;SDS011;62005;50.082;8.988;2023-04-24T01:46:53;2.92;;;0.17;;
73699;SDS011;62005;50.082;8.988;2023-04-24T01:49:20;0.63;;;0.13;;
73699;SDS011;62005;50.082;8.988;2023-04-24T01:51:54;1.77;;;0.32;;
73699;SDS011;62005;50.082;8.988;2023-04-24T01:57:50;1.75;;;0.17;;
73699;SDS011;62005;50.082;8.988;2023-04-24T02:00:43;0.77;;;0.10;;
73699;SDS011;62005;50.082;8.988;2023-04-24T02:03:09;0.50;;;0.10;;
73699;SDS011;62005;50.082;8.988;2023-04-24T02:05:40;1.27;;;0.20;;
73699;SDS011;62005;50.082;8.988;2023-04-24T02:08:20;0.65;;;0.22;;
73699;SDS011;62005;50.082;8.988;2023-04-24T02:13:39;0.57;;;0.10;;
73699;SDS011;62005;50.082;8.988;2023-04-24T02:16:10;1.13;;;0.30;;
73699;SDS011;62005;50.082;8.988;2023-04-24T02:21:32;0.55;;;0.20;;
73699;SDS011;62005;50.082;8.988;2023-04-24T02:24:42;1.95;;;0.10;;
73699;SDS011;62005;50.082;8.988;2023-04-24T02:27:13;0.98;;;0.10;;
73699;SDS011;62005;50.082;8.988;2023-04-24T02:29:39;1.58;;;0.22;;
73699;SDS011;62005;50.082;8.988;2023-04-24T02:32:05;2.72;;;0.13;;
73699;SDS011;62005;50.082;8.988;2023-04-24T02:34:39;0.40;;;0.10;;
73699;SDS011;62005;50.082;8.988;2023-04-24T02:37:07;1.10;;;0.15;;
73699;SDS011;62005;50.082;8.988;2023-04-24T02:39:32;1.98;;;0.10;;
73699;SDS011;62005;50.082;8.988;2023-04-24T02:42:03;0.50;;;0.15;;
73699;SDS011;62005;50.082;8.988;2023-04-24T02:48:00;1.85;;;0.15;;
73699;SDS011;62005;50.082;8.988;2023-04-24T02:50:35;0.90;;;0.22;;
73699;SDS011;62005;50.082;8.988;2023-04-24T02:53:27;0.50;;;0.13;;
73699;SDS011;62005;50.082;8.988;2023-04-24T02:58:47;1.35;;;0.30;;
73699;SDS011;62005;50.082;8.988;2023-04-24T03:01:12;1.67;;;0.30;;
73699;SDS011;62005;50.082;8.988;2023-04-24T03:03:43;1.50;;;0.10;;
73699;SDS011;62005;50.082;8.988;2023-04-24T03:06:09;1.92;;;0.35;;
73699;SDS011;62005;50.082;8.988;2023-04-24T03:08:40;0.80;;;0.43;;
73699;SDS011;62005;50.082;8.988;2023-04-24T03:11:08;0.90;;;0.10;;
73699;SDS011;62005;50.082;8.988;2023-04-24T03:13:40;1.13;;;0.15;;
73699;SDS011;62005;50.082;8.988;2023-04-24T03:16:05;0.70;;;0.17;;
73699;SDS011;62005;50.082;8.988;2023-04-24T03:18:31;1.45;;;0.13;;
73699;SDS011;62005;50.082;8.988;2023-04-24T03:21:10;3.45;;;0.22;;
73699;SDS011;62005;50.082;8.988;2023-04-24T03:24:27;0.98;;;0.20;;
73699;SDS011;62005;50.082;8.988;2023-04-24T03:26:56;2.03;;;0.28;;
73699;SDS011;62005;50.082;8.988;2023-04-24T03:29:28;1.58;;;0.32;;
73699;SDS011;62005;50.082;8.988;2023-04-24T03:31:53;0.40;;;0.20;;
73699;SDS011;62005;50.082;8.988;2023-04-24T03:34:19;3.83;;;0.63;;
73699;SDS011;62005;50.082;8.988;2023-04-24T03:36:47;1.67;;;0.35;;
73699;SDS011;62005;50.082;8.988;2023-04-24T03:39:12;1.13;;;0.13;;
73699;SDS011;62005;50.082;8.988;2023-04-24T03:41:40;0.70;;;0.28;;
73699;SDS011;62005;50.082;8.988;2023-04-24T03:44:06;2.20;;;0.10;;
73699;SDS011;62005;50.082;8.988;2023-04-24T03:46:31;1.48;;;0.20;;
73699;SDS011;62005;50.082;8.988;2023-04-24T03:49:14;0.93;;;0.28;;
73699;SDS011;62005;50.082;8.988;2023-04-24T03:51:39;0.63;;;0.10;;
73699;SDS011;62005;50.082;8.988;2023-04-24T03:54:05;0.73;;;0.20;;
73699;SDS011;62005;50.082;8.988;2023-04-24T03:59:26;0.98;;;0.20;;
73699;SDS011;62005;50.082;8.988;2023-04-24T04:01:51;1.08;;;0.32;;
73699;SDS011;62005;50.082;8.988;2023-04-24T04:07:53;1.40;;;0.13;;
73699;SDS011;62005;50.082;8.988;2023-04-24T04:19:46;1.02;;;0.13;;
73699;SDS011;62005;50.082;8.988;2023-04-24T04:22:22;1.33;;;0.25;;
73699;SDS011;62005;50.082;8.988;2023-04-24T04:25:44;1.98;;;0.30;;
73699;SDS011;62005;50.082;8.988;2023-04-24T04:28:19;0.80;;;0.30;;
73699;SDS011;62005;50.082;8.988;2023-04-24T04:30:45;0.70;;;0.22;;
73699;SDS011;62005;50.082;8.988;2023-04-24T04:33:24;2.15;;;0.20;;
73699;SDS011;62005;50.082;8.988;2023-04-24T04:42:55;1.02;;;0.20;;
73699;SDS011;62005;50.082;8.988;2023-04-24T04:45:23;0.82;;;0.28;;
73699;SDS011;62005;50.082;8.988;2023-04-24T04:54:54;0.98;;;0.20;;
73699;SDS011;62005;50.082;8.988;2023-04-24T04:57:39;1.02;;;0.22;;
73699;SDS011;62005;50.082;8.988;2023-04-24T05:03:28;0.75;;;0.22;;
73699;SDS011;62005;50.082;8.988;2023-04-24T05:09:43;1.02;;;0.50;;
73699;SDS011;62005;50.082;8.988;2023-04-24T05:15:43;2.42;;;0.43;;
73699;SDS011;62005;50.082;8.988;2023-04-24T05:28:24;3.28;;;0.82;;
73699;SDS011;62005;50.082;8.988;2023-04-24T05:30:53;2.13;;;0.43;;
73699;SDS011;62005;50.082;8.988;2023-04-24T05:36:36;1.15;;;0.40;;
73699;SDS011;62005;50.082;8.988;2023-04-24T05:45:13;2.97;;;0.68;;
73699;SDS011;62005;50.082;8.988;2023-04-24T05:48:08;1.35;;;0.55;;
73699;SDS011;62005;50.082;8.988;2023-04-24T05:50:34;3.23;;;0.63;;
73699;SDS011;62005;50.082;8.988;2023-04-24T05:53:07;3.30;;;0.90;;
73699;SDS011;62005;50.082;8.988;2023-04-24T05:55:50;1.00;;;0.32;;
73699;SDS011;62005;50.082;8.988;2023-04-24T05:58:27;2.17;;;0.55;;
73699;SDS011;62005;50.082;8.988;2023-04-24T06:00:55;2.20;;;0.93;;
73699;SDS011;62005;50.082;8.988;2023-04-24T06:06:45;0.60;;;0.17;;
73699;SDS011;62005;50.082;8.988;2023-04-24T06:09:25;2.00;;;0.38;;
73699;SDS011;62005;50.082;8.988;2023-04-24T06:11:51;1.88;;;0.22;;
73699;SDS011;62005;50.082;8.988;2023-04-24T06:14:20;3.83;;;0.43;;
73699;SDS011;62005;50.082;8.988;2023-04-24T06:17:03;1.73;;;0.32;;
73699;SDS011;62005;50.082;8.988;2023-04-24T06:20:12;1.48;;;0.50;;
73699;SDS011;62005;50.082;8.988;2023-04-24T06:29:41;1.02;;;0.30;;
73699;SDS011;62005;50.082;8.988;2023-04-24T06:32:16;1.80;;;0.28;;
73699;SDS011;62005;50.082;8.988;2023-04-24T06:38:17;4.10;;;0.45;;
73699;SDS011;62005;50.082;8.988;2023-04-24T06:41:00;2.00;;;0.43;;
73699;SDS011;62005;50.082;8.988;2023-04-24T06:43:35;0.88;;;0.30;;
73699;SDS011;62005;50.082;8.988;2023-04-24T06:46:34;2.80;;;0.40;;
73699;SDS011;62005;50.082;8.988;2023-04-24T06:49:20;0.88;;;0.20;;
73699;SDS011;62005;50.082;8.988;2023-04-24T06:51:46;1.57;;;0.40;;
73699;SDS011;62005;50.082;8.988;2023-04-24T06:54:16;1.50;;;0.35;;
73699;SDS011;62005;50.082;8.988;2023-04-24T06:57:02;3.25;;;0.35;;
73699;SDS011;62005;50.082;8.988;2023-04-24T06:59:55;1.80;;;0.50;;
73699;SDS011;62005;50.082;8.988;2023-04-24T07:02:23;1.30;;;0.50;;
73699;SDS011;62005;50.082;8.988;2023-04-24T07:05:08;1.55;;;0.80;;
73699;SDS011;62005;50.082;8.988;2023-04-24T07:11:08;1.05;;;0.28;;
73699;SDS011;62005;50.082;8.988;2023-04-24T07:13:33;1.23;;;0.53;;
73699;SDS011;62005;50.082;8.988;2023-04-24T07:16:03;1.77;;;0.30;;
73699;SDS011;62005;50.082;8.988;2023-04-24T07:18:34;3.45;;;1.02;;
73699;SDS011;62005;50.082;8.988;2023-04-24T07:21:01;1.48;;;0.50;;
73699;SDS011;62005;50.082;8.988;2023-04-24T07:27:23;1.88;;;0.55;;
73699;SDS011;62005;50.082;8.988;2023-04-24T07:30:07;1.48;;;0.47;;
73699;SDS011;62005;50.082;8.988;2023-04-24T07:32:57;3.17;;;0.63;;
73699;SDS011;62005;50.082;8.988;2023-04-24T07:36:21;1.23;;;0.32;;
73699;SDS011;62005;50.082;8.988;2023-04-24T07:39:00;1.85;;;0.50;;
73699;SDS011;62005;50.082;8.988;2023-04-24T07:41:25;1.92;;;0.70;;
73699;SDS011;62005;50.082;8.988;2023-04-24T07:53:47;1.35;;;0.50;;
73699;SDS011;62005;50.082;8.988;2023-04-24T07:59:54;1.45;;;0.35;;
73699;SDS011;62005;50.082;8.988;2023-04-24T08:02:20;0.95;;;0.32;;
73699;SDS011;62005;50.082;8.988;2023-04-24T08:05:31;1.30;;;0.30;;
73699;SDS011;62005;50.082;8.988;2023-04-24T08:11:20;2.55;;;0.60;;
73699;SDS011;62005;50.082;8.988;2023-04-24T08:20:23;2.08;;;0.68;;
73699;SDS011;62005;50.082;8.988;2023-04-24T08:23:28;1.52;;;0.60;;
73699;SDS011;62005;50.082;8.988;2023-04-24T08:26:32;2.25;;;0.60;;
73699;SDS011;62005;50.082;8.988;2023-04-24T08:29:21;2.15;;;0.43;;
73699;SDS011;62005;50.082;8.988;2023-04-24T08:31:47;2.05;;;0.40;;
73699;SDS011;62005;50.082;8.988;2023-04-24T08:34:41;1.65;;;0.70;;
73699;SDS011;62005;50.082;8.988;2023-04-24T08:38:19;1.45;;;0.30;;
73699;SDS011;62005;50.082;8.988;2023-04-24T08:40:49;1.95;;;0.45;;
73699;SDS011;62005;50.082;8.988;2023-04-24T08:49:21;2.50;;;0.50;;
73699;SDS011;62005;50.082;8.988;2023-04-24T08:51:55;2.42;;;0.22;;
73699;SDS011;62005;50.082;8.988;2023-04-24T08:58:19;1.00;;;0.38;;
73699;SDS011;62005;50.082;8.988;2023-04-24T09:00:47;2.85;;;0.50;;
73699;SDS011;62005;50.082;8.988;2023-04-24T09:03:15;1.25;;;0.43;;
73699;SDS011;62005;50.082;8.988;2023-04-24T09:05:48;1.58;;;0.30;;
73699;SDS011;62005;50.082;8.988;2023-04-24T09:08:27;1.42;;;0.32;;
73699;SDS011;62005;50.082;8.988;2023-04-24T09:10:57;1.13;;;0.30;;
73699;SDS011;62005;50.082;8.988;2023-04-24T09:13:27;3.03;;;0.73;;
73699;SDS011;62005;50.082;8.988;2023-04-24T09:15:54;1.67;;;0.40;;
73699;SDS011;62005;50.082;8.988;2023-04-24T09:18:22;1.83;;;0.82;;
73699;SDS011;62005;50.082;8.988;2023-04-24T09:24:03;1.55;;;0.40;;
73699;SDS011;62005;50.082;8.988;2023-04-24T09:26:46;1.25;;;0.22;;
73699;SDS011;62005;50.082;8.988;2023-04-24T09:29:17;1.77;;;0.50;;
73699;SDS011;62005;50.082;8.988;2023-04-24T09:31:43;5.40;;;0.60;;
73699;SDS011;62005;50.082;8.988;2023-04-24T09:34:13;1.15;;;0.63;;
73699;SDS011;62005;50.082;8.988;2023-04-24T09:36:39;1.00;;;0.40;;
73699;SDS011;62005;50.082;8.988;2023-04-24T09:39:09;1.10;;;0.22;;
73699;SDS011;62005;50.082;8.988;2023-04-24T09:41:53;2.30;;;0.52;;
73699;SDS011;62005;50.082;8.988;2023-04-24T09:44:26;1.80;;;0.43;;
73699;SDS011;62005;50.082;8.988;2023-04-24T09:46:58;2.20;;;0.52;;
73699;SDS011;62005;50.082;8.988;2023-04-24T09:49:39;1.20;;;0.32;;
73699;SDS011;62005;50.082;8.988;2023-04-24T09:52:12;2.35;;;0.50;;
73699;SDS011;62005;50.082;8.988;2023-04-24T09:54:37;1.85;;;0.55;;
73699;SDS011;62005;50.082;8.988;2023-04-24T09:57:09;2.30;;;0.43;;
73699;SDS011;62005;50.082;8.988;2023-04-24T09:59:41;1.60;;;0.47;;
73699;SDS011;62005;50.082;8.988;2023-04-24T10:02:19;1.10;;;0.40;;
73699;SDS011;62005;50.082;8.988;2023-04-24T10:04:54;2.38;;;0.43;;
73699;SDS011;62005;50.082;8.988;2023-04-24T10:07:39;2.50;;;0.47;;
73699;SDS011;62005;50.082;8.988;2023-04-24T10:10:05;0.90;;;0.43;;
73699;SDS011;62005;50.082;8.988;2023-04-24T10:12:33;1.00;;;0.30;;
73699;SDS011;62005;50.082;8.988;2023-04-24T10:29:23;2.28;;;0.32;;
73699;SDS011;62005;50.082;8.988;2023-04-24T10:38:56;1.30;;;0.50;;
73699;SDS011;62005;50.082;8.988;2023-04-24T10:41:55;3.42;;;1.02;;
73699;SDS011;62005;50.082;8.988;2023-04-24T10:44:24;1.65;;;0.47;;
73699;SDS011;62005;50.082;8.988;2023-04-24T10:46:52;1.30;;;0.30;;
73699;SDS011;62005;50.082;8.988;2023-04-24T10:59:37;1.23;;;0.20;;
73699;SDS011;62005;50.082;8.988;2023-04-24T11:02:13;1.33;;;0.43;;
73699;SDS011;62005;50.082;8.988;2023-04-24T11:09:05;3.67;;;1.48;;
73699;SDS011;62005;50.082;8.988;2023-04-24T11:11:45;0.63;;;0.28;;
73699;SDS011;62005;50.082;8.988;2023-04-24T11:17:50;1.95;;;0.45;;
73699;SDS011;62005;50.082;8.988;2023-04-24T11:28:38;0.75;;;0.50;;
73699;SDS011;62005;50.082;8.988;2023-04-24T11:40:52;1.70;;;0.30;;
73699;SDS011;62005;50.082;8.988;2023-04-24T12:11:01;0.45;;;0.10;;
73699;SDS011;62005;50.082;8.988;2023-04-24T12:13:26;0.88;;;0.10;;
73699;SDS011;62005;50.082;8.988;2023-04-24T12:30:50;0.50;;;0.10;;
73699;SDS011;62005;50.082;8.988;2023-04-24T12:33:19;0.25;;;0.10;;
73699;SDS011;62005;50.082;8.988;2023-04-24T12:35:57;0.43;;;0.13;;
73699;SDS011;62005;50.082;8.988;2023-04-24T12:38:23;0.30;;;0.10;;
73699;SDS011;62005;50.082;8.988;2023-04-24T12:41:07;0.40;;;0.03;;
73699;SDS011;62005;50.082;8.988;2023-04-24T12:43:34;0.82;;;0.00;;
73699;SDS011;62005;50.082;8.988;2023-04-24T12:46:21;0.50;;;0.10;;
73699;SDS011;62005;50.082;8.988;2023-04-24T12:49:42;2.95;;;0.40;;
73699;SDS011;62005;50.082;8.988;2023-04-24T12:59:36;1.90;;;0.50;;
73699;SDS011;62005;50.082;8.988;2023-04-24T13:02:01;1.17;;;0.00;;
73699;SDS011;62005;50.082;8.988;2023-04-24T13:04:27;0.45;;;0.03;;
73699;SDS011;62005;50.082;8.988;2023-04-24T13:06:53;0.88;;;0.13;;
73699;SDS011;62005;50.082;8.988;2023-04-24T13:09:18;0.93;;;0.10;;
73699;SDS011;62005;50.082;8.988;2023-04-24T13:11:43;1.53;;;0.10;;
73699;SDS011;62005;50.082;8.988;2023-04-24T13:17:48;0.93;;;0.20;;
73699;SDS011;62005;50.082;8.988;2023-04-24T13:22:03;0.40;;;0.10;;
73699;SDS011;62005;50.082;8.988;2023-04-24T13:24:01;1.05;;;0.13;;
73699;SDS011;62005;50.082;8.988;2023-04-24T13:26:26;0.75;;;0.15;;
73699;SDS011;62005;50.082;8.988;2023-04-24T13:29:00;1.05;;;0.22;;
73699;SDS011;62005;50.082;8.988;2023-04-24T13:31:41;1.08;;;0.10;;
73699;SDS011;62005;50.082;8.988;2023-04-24T13:47:21;1.83;;;0.60;;
73699;SDS011;62005;50.082;8.988;2023-04-24T13:50:00;4.70;;;0.60;;
73699;SDS011;62005;50.082;8.988;2023-04-24T13:56:40;1.60;;;0.55;;
73699;SDS011;62005;50.082;8.988;2023-04-24T13:59:05;5.13;;;1.23;;
73699;SDS011;62005;50.082;8.988;2023-04-24T14:07:46;1.83;;;0.50;;
73699;SDS011;62005;50.082;8.988;2023-04-24T14:10:14;2.03;;;0.50;;
73699;SDS011;62005;50.082;8.988;2023-04-24T14:31:34;3.30;;;1.15;;
73699;SDS011;62005;50.082;8.988;2023-04-24T14:34:35;14.50;;;4.90;;
73699;SDS011;62005;50.082;8.988;2023-04-24T14:37:03;4.10;;;1.57;;
73699;SDS011;62005;50.082;8.988;2023-04-24T14:42:34;3.00;;;0.73;;
73699;SDS011;62005;50.082;8.988;2023-04-24T14:45:09;2.88;;;0.80;;
73699;SDS011;62005;50.082;8.988;2023-04-24T14:51:31;2.58;;;0.50;;
73699;SDS011;62005;50.082;8.988;2023-04-24T14:53:59;2.15;;;1.10;;
73699;SDS011;62005;50.082;8.988;2023-04-24T14:59:32;2.20;;;0.75;;
73699;SDS011;62005;50.082;8.988;2023-04-24T15:02:14;3.85;;;1.17;;
73699;SDS011;62005;50.082;8.988;2023-04-24T15:11:33;2.60;;;0.88;;
73699;SDS011;62005;50.082;8.988;2023-04-24T15:17:13;3.47;;;0.88;;
73699;SDS011;62005;50.082;8.988;2023-04-24T15:23:39;3.22;;;0.70;;
73699;SDS011;62005;50.082;8.988;2023-04-24T15:26:05;3.22;;;0.73;;
73699;SDS011;62005;50.082;8.988;2023-04-24T15:31:29;2.35;;;1.17;;
73699;SDS011;62005;50.082;8.988;2023-04-24T15:41:05;4.55;;;1.08;;
73699;SDS011;62005;50.082;8.988;2023-04-24T15:43:30;2.95;;;0.55;;
73699;SDS011;62005;50.082;8.988;2023-04-24T15:45:59;3.60;;;1.10;;
73699;SDS011;62005;50.082;8.988;2023-04-24T15:51:46;2.47;;;1.05;;
73699;SDS011;62005;50.082;8.988;2023-04-24T16:00:53;4.35;;;0.90;;
73699;SDS011;62005;50.082;8.988;2023-04-24T16:13:02;2.00;;;0.70;;
73699;SDS011;62005;50.082;8.988;2023-04-24T16:22:19;1.95;;;0.90;;
73699;SDS011;62005;50.082;8.988;2023-04-24T16:25:16;4.53;;;1.00;;
73699;SDS011;62005;50.082;8.988;2023-04-24T16:33:34;2.97;;;0.95;;
73699;SDS011;62005;50.082;8.988;2023-04-24T16:36:11;2.70;;;0.83;;
73699;SDS011;62005;50.082;8.988;2023-04-24T16:49:34;1.80;;;0.80;;
73699;SDS011;62005;50.082;8.988;2023-04-24T16:52:49;5.38;;;0.60;;
73699;SDS011;62005;50.082;8.988;2023-04-24T17:01:26;2.38;;;0.63;;
73699;SDS011;62005;50.082;8.988;2023-04-24T17:07:08;2.25;;;0.90;;
73699;SDS011;62005;50.082;8.988;2023-04-24T17:10:03;3.20;;;0.65;;
73699;SDS011;62005;50.082;8.988;2023-04-24T17:12:58;4.10;;;0.68;;
73699;SDS011;62005;50.082;8.988;2023-04-24T17:15:43;1.70;;;0.63;;
73699;SDS011;62005;50.082;8.988;2023-04-24T17:28:22;2.05;;;0.73;;
73699;SDS011;62005;50.082;8.988;2023-04-24T17:34:35;3.47;;;0.90;;
73699;SDS011;62005;50.082;8.988;2023-04-24T17:37:03;1.87;;;0.50;;
73699;SDS011;62005;50.082;8.988;2023-04-24T17:40:01;3.35;;;0.90;;
73699;SDS011;62005;50.082;8.988;2023-04-24T17:46:15;2.65;;;1.20;;
73699;SDS011;62005;50.082;8.988;2023-04-24T17:48:40;2.58;;;1.08;;
73699;SDS011;62005;50.082;8.988;2023-04-24T17:51:06;5.40;;;0.93;;
73699;SDS011;62005;50.082;8.988;2023-04-24T17:59:45;4.30;;;0.95;;
73699;SDS011;62005;50.082;8.988;2023-04-24T18:02:11;2.53;;;1.58;;
73699;SDS011;62005;50.082;8.988;2023-04-24T18:04:36;2.40;;;1.10;;
73699;SDS011;62005;50.082;8.988;2023-04-24T18:13:37;2.63;;;0.82;;
73699;SDS011;62005;50.082;8.988;2023-04-24T18:16:37;2.90;;;1.10;;
73699;SDS011;62005;50.082;8.988;2023-04-24T18:19:47;1.98;;;0.82;;
73699;SDS011;62005;50.082;8.988;2023-04-24T18:22:53;3.15;;;1.00;;
73699;SDS011;62005;50.082;8.988;2023-04-24T18:26:06;3.08;;;1.30;;
73699;SDS011;62005;50.082;8.988;2023-04-24T18:31:37;2.92;;;1.10;;
73699;SDS011;62005;50.082;8.988;2023-04-24T18:34:43;3.40;;;1.05;;
73699;SDS011;62005;50.082;8.988;2023-04-24T18:43:45;2.35;;;0.63;;
73699;SDS011;62005;50.082;8.988;2023-04-24T18:46:47;2.90;;;1.08;;
73699;SDS011;62005;50.082;8.988;2023-04-24T18:53:30;2.40;;;1.45;;
73699;SDS011;62005;50.082;8.988;2023-04-24T18:56:53;2.20;;;1.02;;
73699;SDS011;62005;50.082;8.988;2023-04-24T19:00:00;1.83;;;1.02;;
73699;SDS011;62005;50.082;8.988;2023-04-24T19:19:36;1.70;;;0.93;;
73699;SDS011;62005;50.082;8.988;2023-04-24T19:22:29;2.92;;;0.90;;
73699;SDS011;62005;50.082;8.988;2023-04-24T19:25:14;2.10;;;1.50;;
73699;SDS011;62005;50.082;8.988;2023-04-24T19:27:56;2.47;;;1.33;;
73699;SDS011;62005;50.082;8.988;2023-04-24T19:31:05;2.08;;;0.90;;
73699;SDS011;62005;50.082;8.988;2023-04-24T19:33:39;2.40;;;1.03;;
73699;SDS011;62005;50.082;8.988;2023-04-24T19:40:16;3.45;;;1.02;;
73699;SDS011;62005;50.082;8.988;2023-04-24T19:46:35;2.58;;;1.20;;
73699;SDS011;62005;50.082;8.988;2023-04-24T19:54:52;1.67;;;0.73;;
73699;SDS011;62005;50.082;8.988;2023-04-24T19:57:17;2.35;;;0.80;;
73699;SDS011;62005;50.082;8.988;2023-04-24T20:00:27;2.33;;;1.02;;
73699;SDS011;62005;50.082;8.988;2023-04-24T20:05:48;2.63;;;2.00;;
73699;SDS011;62005;50.082;8.988;2023-04-24T20:11:33;2.22;;;1.08;;
73699;SDS011;62005;50.082;8.988;2023-04-24T20:34:34;2.45;;;1.02;;
73699;SDS011;62005;50.082;8.988;2023-04-24T20:37:00;2.67;;;1.38;;
73699;SDS011;62005;50.082;8.988;2023-04-24T20:39:35;4.10;;;1.63;;
73699;SDS011;62005;50.082;8.988;2023-04-24T20:42:03;1.88;;;0.80;;
73699;SDS011;62005;50.082;8.988;2023-04-24T20:44:29;3.45;;;1.27;;
73699;SDS011;62005;50.082;8.988;2023-04-24T20:46:54;2.92;;;1.30;;
73699;SDS011;62005;50.082;8.988;2023-04-24T20:49:23;3.25;;;1.48;;
73699;SDS011;62005;50.082;8.988;2023-04-24T20:52:00;3.10;;;1.30;;
73699;SDS011;62005;50.082;8.988;2023-04-24T20:54:28;2.90;;;1.33;;
73699;SDS011;62005;50.082;8.988;2023-04-24T20:57:27;2.38;;;1.23;;
73699;SDS011;62005;50.082;8.988;2023-04-24T21:00:15;3.75;;;1.60;;
73699;SDS011;62005;50.082;8.988;2023-04-24T21:02:41;2.70;;;1.45;;
73699;SDS011;62005;50.082;8.988;2023-04-24T21:05:06;3.63;;;1.60;;
73699;SDS011;62005;50.082;8.988;2023-04-24T21:07:32;3.35;;;1.67;;
73699;SDS011;62005;50.082;8.988;2023-04-24T21:09:58;3.40;;;1.13;;
73699;SDS011;62005;50.082;8.988;2023-04-24T21:12:29;2.58;;;1.85;;
73699;SDS011;62005;50.082;8.988;2023-04-24T21:15:00;2.25;;;1.10;;
73699;SDS011;62005;50.082;8.988;2023-04-24T21:17:49;2.72;;;1.42;;
73699;SDS011;62005;50.082;8.988;2023-04-24T21:20:17;2.88;;;1.50;;
73699;SDS011;62005;50.082;8.988;2023-04-24T21:22:45;2.25;;;1.45;;
73699;SDS011;62005;50.082;8.988;2023-04-24T21:25:18;2.67;;;1.25;;
73699;SDS011;62005;50.082;8.988;2023-04-24T21:27:46;3.05;;;1.10;;
73699;SDS011;62005;50.082;8.988;2023-04-24T21:30:12;2.90;;;1.52;;
73699;SDS011;62005;50.082;8.988;2023-04-24T21:32:45;2.53;;;1.00;;
73699;SDS011;62005;50.082;8.988;2023-04-24T21:35:18;2.65;;;1.30;;
73699;SDS011;62005;50.082;8.988;2023-04-24T21:37:56;2.60;;;1.25;;
73699;SDS011;62005;50.082;8.988;2023-04-24T21:40:23;2.35;;;1.17;;
73699;SDS011;62005;50.082;8.988;2023-04-24T21:42:49;2.67;;;1.48;;
73699;SDS011;62005;50.082;8.988;2023-04-24T21:45:16;2.33;;;1.20;;
73699;SDS011;62005;50.082;8.988;2023-04-24T21:47:45;2.17;;;1.08;;
73699;SDS011;62005;50.082;8.988;2023-04-24T21:50:13;2.75;;;1.33;;
73699;SDS011;62005;50.082;8.988;2023-04-24T21:55:34;2.83;;;1.40;;
73699;SDS011;62005;50.082;8.988;2023-04-24T21:58:05;3.40;;;1.35;;
73699;SDS011;62005;50.082;8.988;2023-04-24T22:00:36;1.90;;;0.93;;
73699;SDS011;62005;50.082;8.988;2023-04-24T22:03:04;2.72;;;1.38;;
73699;SDS011;62005;50.082;8.988;2023-04-24T22:08:10;2.17;;;1.23;;
73699;SDS011;62005;50.082;8.988;2023-04-24T22:10:35;1.90;;;0.90;;
73699;SDS011;62005;50.082;8.988;2023-04-24T22:13:04;2.70;;;1.48;;
73699;SDS011;62005;50.082;8.988;2023-04-24T22:15:34;3.55;;;1.40;;
73699;SDS011;62005;50.082;8.988;2023-04-24T22:18:08;2.83;;;1.38;;
73699;SDS011;62005;50.082;8.988;2023-04-24T22:20:42;2.85;;;1.38;;
73699;SDS011;62005;50.082;8.988;2023-04-24T22:23:18;3.70;;;2.28;;
73699;SDS011;62005;50.082;8.988;2023-04-24T22:25:46;3.75;;;1.55;;
73699;SDS011;62005;50.082;8.988;2023-04-24T22:28:11;3.47;;;1.45;;
73699;SDS011;62005;50.082;8.988;2023-04-24T22:36:33;4.13;;;1.58;;
73699;SDS011;62005;50.082;8.988;2023-04-24T22:39:00;2.93;;;1.43;;
73699;SDS011;62005;50.082;8.988;2023-04-24T22:41:47;4.30;;;1.60;;
73699;SDS011;62005;50.082;8.988;2023-04-24T22:44:24;3.17;;;1.58;;
73699;SDS011;62005;50.082;8.988;2023-04-24T22:46:56;3.63;;;1.60;;
73699;SDS011;62005;50.082;8.988;2023-04-24T22:49:24;3.58;;;1.60;;
73699;SDS011;62005;50.082;8.988;2023-04-24T22:51:52;3.63;;;1.33;;
73699;SDS011;62005;50.082;8.988;2023-04-24T22:54:27;3.33;;;1.45;;
73699;SDS011;62005;50.082;8.988;2023-04-24T22:57:00;2.28;;;1.33;;
73699;SDS011;62005;50.082;8.988;2023-04-24T22:59:26;4.43;;;1.55;;
73699;SDS011;62005;50.082;8.988;2023-04-24T23:02:06;3.88;;;1.42;;
73699;SDS011;62005;50.082;8.988;2023-04-24T23:07:14;2.50;;;1.33;;
73699;SDS011;62005;50.082;8.988;2023-04-24T23:09:45;3.10;;;1.92;;
73699;SDS011;62005;50.082;8.988;2023-04-24T23:12:11;3.42;;;1.90;;
73699;SDS011;62005;50.082;8.988;2023-04-24T23:14:36;3.70;;;2.00;;
73699;SDS011;62005;50.082;8.988;2023-04-24T23:17:02;5.07;;;2.00;;
73699;SDS011;62005;50.082;8.988;2023-04-24T23:19:27;4.30;;;1.95;;
73699;SDS011;62005;50.082;8.988;2023-04-24T23:21:53;6.00;;;2.83;;
73699;SDS011;62005;50.082;8.988;2023-04-24T23:24:18;4.20;;;1.93;;
73699;SDS011;62005;50.082;8.988;2023-04-24T23:26:43;5.40;;;2.00;;
73699;SDS011;62005;50.082;8.988;2023-04-24T23:29:09;4.07;;;1.90;;
73699;SDS011;62005;50.082;8.988;2023-04-24T23:31:34;4.53;;;2.13;;
73699;SDS011;62005;50.082;8.988;2023-04-24T23:33:59;5.23;;;2.13;;
73699;SDS011;62005;50.082;8.988;2023-04-24T23:36:26;5.32;;;1.98;;
73699;SDS011;62005;50.082;8.988;2023-04-24T23:38:51;4.40;;;2.50;;
73699;SDS011;62005;50.082;8.988;2023-04-24T23:41:17;5.43;;;3.60;;
73699;SDS011;62005;50.082;8.988;2023-04-24T23:43:43;4.25;;;2.40;;
73699;SDS011;62005;50.082;8.988;2023-04-24T23:46:09;4.57;;;2.00;;
73699;SDS011;62005;50.082;8.988;2023-04-24T23:48:34;5.10;;;2.88;;
73699;SDS011;62005;50.082;8.988;2023-04-24T23:51:01;5.57;;;2.20;;
73699;SDS011;62005;50.082;8.988;2023-04-24T23:53:26;4.70;;;2.35;;
73699;SDS011;62005;50.082;8.988;2023-04-24T23:55:52;4.43;;;2.65;;
73699;SDS011;62005;50.082;8.988;2023-04-24T23:58:17;4.63;;;2.53;;
